createdAt,value
2018-04-22T00:18:52.244Z,9.17
2018-04-22T00:39:24.753Z,9.30
2018-04-22T01:00:01.923Z,8.27
2018-04-22T01:20:37.152Z,9.70
2018-04-22T01:41:11.190Z,8.10
2018-04-22T02:01:44.307Z,8.17
2018-04-22T02:22:19.579Z,8.10
2018-04-22T02:42:53.627Z,8.93
2018-04-22T03:03:28.888Z,8.30
2018-04-22T03:24:02.012Z,8.40
2018-04-22T03:44:34.210Z,8.40
2018-04-22T04:05:09.914Z,9.67
2018-04-22T04:26:01.038Z,8.70
2018-04-22T04:46:36.535Z,9.93
2018-04-22T05:07:11.581Z,10.30
2018-04-22T05:27:45.982Z,10.70
2018-04-22T05:48:19.972Z,10.00
2018-04-22T06:08:55.251Z,11.20
2018-04-22T06:29:29.826Z,9.67
2018-04-22T06:50:03.645Z,10.20
2018-04-22T07:10:38.105Z,9.63
2018-04-22T07:31:11.114Z,9.70
2018-04-22T07:51:45.164Z,15.07
2018-04-22T08:12:19.505Z,11.60
2018-04-22T08:32:53.986Z,8.77
2018-04-22T08:53:35.889Z,9.60
2018-04-22T09:14:11.505Z,7.30
2018-04-22T09:34:43.369Z,7.60
2018-04-22T09:55:17.719Z,5.40
2018-04-22T10:15:57.193Z,5.23
2018-04-22T10:36:34.444Z,5.00
2018-04-22T10:57:05.369Z,3.83
2018-04-22T11:17:42.794Z,3.70
2018-04-22T11:38:15.916Z,4.00
2018-04-22T11:58:49.048Z,3.50
2018-04-22T12:19:22.164Z,3.27
2018-04-22T12:39:55.591Z,3.03
2018-04-22T13:00:27.789Z,3.50
2018-04-22T13:21:00.911Z,4.03
2018-04-22T13:41:33.345Z,3.73
2018-04-22T14:02:05.317Z,3.53
2018-04-22T14:22:40.585Z,2.90
2018-04-22T14:43:13.704Z,3.30
2018-04-22T15:03:47.748Z,2.83
2018-04-22T15:24:23.025Z,3.00
2018-04-22T15:44:57.378Z,2.97
2018-04-22T16:05:32.645Z,2.90
2018-04-22T16:26:05.767Z,3.17
2018-04-22T16:46:38.295Z,3.70
2018-04-22T17:07:14.168Z,4.20
2018-04-22T17:27:49.766Z,3.30
2018-04-22T17:48:22.972Z,3.57
2018-04-22T18:08:59.229Z,2.90
2018-04-22T18:29:30.953Z,3.43
2018-04-22T18:50:05.633Z,4.70
2018-04-22T19:10:37.504Z,4.47
2018-04-22T19:31:08.780Z,3.80
2018-04-22T19:51:41.903Z,4.33
2018-04-22T20:12:16.254Z,5.87
2018-04-22T20:32:48.452Z,5.40
2018-04-22T20:53:23.073Z,7.67
2018-04-22T21:13:56.860Z,5.03
2018-04-22T21:34:29.051Z,4.70
2018-04-22T21:55:03.516Z,5.30
2018-04-22T22:15:33.448Z,6.07
2018-04-22T22:36:05.652Z,5.90
2018-04-22T22:56:41.124Z,6.57
2018-04-22T23:17:15.890Z,6.17
2018-04-22T23:37:50.240Z,6.47
2018-04-22T23:58:25.512Z,6.60
